createdAt,value
2023-06-08T00:01:16.913Z,63.90
2023-06-08T00:03:46.297Z,63.90
2023-06-08T00:06:17.069Z,63.90
2023-06-08T00:08:46.693Z,63.80
2023-06-08T00:11:16.082Z,63.80
2023-06-08T00:13:45.359Z,63.80
2023-06-08T00:16:15.926Z,63.80
2023-06-08T00:18:45.945Z,63.80
2023-06-08T00:21:17.189Z,63.80
2023-06-08T00:23:46.528Z,63.80
2023-06-08T00:26:15.779Z,63.80
2023-06-08T00:28:47.426Z,63.80
2023-06-08T00:31:17.656Z,63.90
2023-06-08T00:33:47.141Z,63.90
2023-06-08T00:36:17.868Z,63.90
2023-06-08T00:38:47.086Z,64.00
2023-06-08T00:41:16.259Z,63.80
2023-06-08T00:43:46.881Z,63.90
2023-06-08T00:46:16.907Z,64.00
2023-06-08T00:48:48.522Z,63.90
2023-06-08T00:51:20.272Z,63.90
2023-06-08T00:53:49.838Z,63.80
2023-06-08T00:56:19.949Z,63.80
2023-06-08T00:58:50.218Z,63.80
2023-06-08T01:01:19.496Z,63.80
2023-06-08T01:03:48.840Z,63.90
2023-06-08T01:06:22.236Z,63.90
2023-06-08T01:09:00.826Z,63.90
2023-06-08T01:11:40.750Z,63.90
2023-06-08T01:14:19.624Z,63.90
2023-06-08T01:16:52.280Z,63.90
2023-06-08T01:19:38.036Z,63.90
2023-06-08T01:22:22.002Z,63.90
2023-06-08T01:25:01.418Z,63.90
2023-06-08T01:27:38.361Z,63.80
2023-06-08T01:30:10.074Z,63.90
2023-06-08T01:32:39.744Z,63.90
2023-06-08T01:35:09.539Z,63.90
2023-06-08T01:37:44.916Z,63.80
2023-06-08T01:40:22.100Z,63.70
2023-06-08T01:42:54.874Z,63.80
2023-06-08T01:45:28.947Z,63.80
2023-06-08T01:48:00.991Z,63.80
2023-06-08T01:50:32.995Z,63.80
2023-06-08T01:53:03.153Z,63.70
2023-06-08T01:55:33.764Z,63.70
2023-06-08T01:58:03.026Z,63.70
2023-06-08T02:00:32.738Z,63.70
2023-06-08T02:03:02.187Z,63.70
2023-06-08T02:05:31.830Z,63.70
2023-06-08T02:08:03.054Z,63.60
2023-06-08T02:10:34.024Z,63.60
2023-06-08T02:13:03.843Z,63.60
2023-06-08T02:15:33.121Z,63.60
2023-06-08T02:18:02.902Z,63.60
2023-06-08T02:20:34.694Z,63.60
2023-06-08T02:23:04.056Z,63.60
2023-06-08T02:25:34.643Z,63.60
2023-06-08T02:28:04.194Z,63.60
2023-06-08T02:30:33.425Z,63.60
2023-06-08T02:33:02.890Z,63.60
2023-06-08T02:35:32.315Z,63.50
2023-06-08T02:38:01.613Z,63.50
2023-06-08T02:40:30.778Z,63.40
2023-06-08T02:43:01.951Z,63.40
2023-06-08T02:45:31.779Z,63.50
2023-06-08T02:48:03.379Z,63.40
2023-06-08T02:50:33.466Z,63.50
2023-06-08T02:53:03.972Z,63.40
2023-06-08T02:55:36.371Z,63.40
2023-06-08T02:58:12.200Z,63.40
2023-06-08T03:00:41.585Z,63.50
2023-06-08T03:03:30.860Z,63.40
2023-06-08T03:06:06.652Z,63.80
2023-06-08T03:08:41.030Z,63.50
2023-06-08T03:11:11.639Z,63.50
2023-06-08T03:13:43.451Z,63.50
2023-06-08T03:16:13.823Z,63.50
2023-06-08T03:18:43.363Z,63.40
2023-06-08T03:21:13.945Z,63.50
2023-06-08T03:23:45.891Z,63.40
2023-06-08T03:26:15.158Z,63.40
2023-06-08T03:28:45.955Z,63.40
2023-06-08T03:31:16.020Z,63.30
2023-06-08T03:33:49.485Z,61.80
2023-06-08T03:36:20.558Z,61.40
2023-06-08T03:38:49.838Z,62.40
2023-06-08T03:41:21.278Z,61.50
2023-06-08T03:43:56.165Z,61.20
2023-06-08T03:46:28.555Z,61.30
2023-06-08T03:49:00.017Z,61.10
2023-06-08T03:51:29.482Z,61.10
2023-06-08T03:53:59.056Z,61.40
2023-06-08T03:56:29.582Z,61.30
2023-06-08T03:59:01.268Z,61.50
2023-06-08T04:01:31.826Z,61.50
2023-06-08T04:04:01.862Z,62.40
2023-06-08T04:06:35.224Z,62.50
2023-06-08T04:09:08.150Z,63.00
2023-06-08T04:11:37.803Z,63.10
2023-06-08T04:14:08.557Z,63.00
2023-06-08T04:16:41.615Z,63.00
2023-06-08T04:19:12.139Z,63.10
2023-06-08T04:21:47.008Z,62.90
2023-06-08T04:24:19.098Z,63.40
2023-06-08T04:26:49.892Z,63.20
2023-06-08T04:29:21.112Z,63.00
2023-06-08T04:31:51.520Z,62.80
2023-06-08T04:34:22.031Z,62.90
2023-06-08T04:36:52.091Z,62.80
2023-06-08T04:39:21.327Z,62.90
2023-06-08T04:41:50.926Z,63.40
2023-06-08T04:44:22.338Z,64.50
2023-06-08T04:46:54.790Z,65.20
2023-06-08T04:49:24.134Z,65.80
2023-06-08T04:51:56.862Z,66.50
2023-06-08T04:54:31.260Z,67.20
2023-06-08T04:57:02.334Z,67.10
2023-06-08T04:59:32.939Z,66.10
2023-06-08T05:02:02.807Z,65.60
2023-06-08T05:04:32.230Z,65.20
2023-06-08T05:07:01.433Z,65.00
2023-06-08T05:09:30.702Z,65.00
2023-06-08T05:11:59.964Z,64.60
2023-06-08T05:14:29.248Z,64.40
2023-06-08T05:16:59.973Z,64.30
2023-06-08T05:19:29.211Z,64.10
2023-06-08T05:21:58.429Z,63.90
2023-06-08T05:24:27.775Z,63.90
2023-06-08T05:26:57.994Z,64.30
2023-06-08T05:29:27.186Z,64.40
2023-06-08T05:31:56.389Z,64.20
2023-06-08T05:34:27.100Z,64.90
2023-06-08T05:36:56.472Z,64.60
2023-06-08T05:39:25.847Z,64.80
2023-06-08T05:41:55.020Z,64.60
2023-06-08T05:44:24.428Z,64.70
2023-06-08T05:46:53.616Z,64.50
2023-06-08T05:49:22.866Z,64.50
2023-06-08T05:51:53.509Z,65.10
2023-06-08T05:54:22.801Z,64.20
2023-06-08T05:56:52.513Z,64.20
2023-06-08T05:59:21.726Z,64.10
2023-06-08T06:01:50.910Z,64.10
2023-06-08T06:04:35.079Z,64.10
2023-06-08T06:07:08.924Z,64.00
2023-06-08T06:09:38.296Z,64.00
2023-06-08T06:12:09.299Z,64.00
2023-06-08T06:14:39.778Z,63.90
2023-06-08T06:17:10.112Z,63.90
2023-06-08T06:19:39.990Z,63.80
2023-06-08T06:22:11.665Z,63.80
2023-06-08T06:24:41.333Z,63.80
2023-06-08T06:27:11.021Z,63.80
2023-06-08T06:29:40.438Z,63.80
2023-06-08T06:32:10.743Z,63.90
2023-06-08T06:34:40.624Z,63.90
2023-06-08T06:37:11.193Z,63.90
2023-06-08T06:39:40.423Z,64.00
2023-06-08T06:42:11.386Z,64.00
2023-06-08T06:44:47.297Z,63.90
2023-06-08T06:47:16.584Z,64.00
2023-06-08T06:49:45.729Z,64.00
2023-06-08T06:52:16.408Z,64.00
2023-06-08T06:54:45.785Z,64.10
2023-06-08T06:57:14.974Z,64.10
2023-06-08T06:59:46.792Z,64.10
2023-06-08T07:02:16.150Z,64.20
2023-06-08T07:04:45.396Z,64.10
2023-06-08T07:07:15.979Z,64.10
2023-06-08T07:09:45.213Z,64.20
2023-06-08T07:12:16.841Z,64.10
2023-06-08T07:14:46.289Z,64.20
2023-06-08T07:17:15.587Z,64.20
2023-06-08T07:19:47.329Z,64.20
2023-06-08T07:22:25.066Z,64.20
2023-06-08T07:25:31.495Z,64.20
2023-06-08T07:27:58.009Z,64.30
2023-06-08T07:30:27.488Z,64.30
2023-06-08T07:32:57.348Z,64.30
2023-06-08T07:35:26.620Z,64.40
2023-06-08T07:37:57.299Z,64.30
2023-06-08T07:40:26.550Z,64.40
2023-06-08T07:42:55.745Z,64.40
2023-06-08T07:45:25.184Z,64.50
2023-06-08T07:47:54.491Z,64.50
2023-06-08T07:50:24.022Z,64.50
2023-06-08T07:52:53.328Z,64.60
2023-06-08T07:55:24.083Z,64.60
2023-06-08T07:57:53.326Z,64.50
2023-06-08T08:00:24.866Z,64.80
2023-06-08T08:02:55.230Z,64.80
2023-06-08T08:05:24.716Z,64.80
2023-06-08T08:07:53.927Z,64.90
2023-06-08T08:10:26.446Z,64.90
2023-06-08T08:12:56.601Z,64.90
2023-06-08T08:15:25.862Z,64.90
2023-06-08T08:17:55.149Z,65.00
2023-06-08T08:20:24.321Z,65.00
2023-06-08T08:22:53.675Z,65.00
2023-06-08T08:25:24.340Z,65.10
2023-06-08T08:27:53.549Z,65.10
2023-06-08T08:30:23.001Z,65.10
2023-06-08T08:32:52.515Z,65.00
2023-06-08T08:35:24.124Z,65.00
2023-06-08T08:37:53.341Z,65.00
2023-06-08T08:40:23.936Z,64.90
2023-06-08T08:43:00.859Z,64.90
2023-06-08T08:45:35.712Z,64.80
2023-06-08T08:48:05.209Z,64.80
2023-06-08T08:50:38.234Z,64.70
2023-06-08T08:53:08.165Z,64.70
2023-06-08T08:55:42.714Z,64.70
2023-06-08T08:58:14.558Z,64.70
2023-06-08T09:00:44.024Z,64.80
2023-06-08T09:03:13.317Z,64.80
2023-06-08T09:05:42.587Z,64.80
2023-06-08T09:08:12.012Z,64.90
2023-06-08T09:10:42.770Z,64.90
2023-06-08T09:13:22.532Z,64.90
2023-06-08T09:15:51.837Z,64.90
2023-06-08T09:18:21.659Z,64.90
2023-06-08T09:20:51.379Z,65.00
2023-06-08T09:23:24.467Z,64.90
2023-06-08T09:25:55.207Z,65.90
2023-06-08T09:28:27.537Z,65.10
2023-06-08T09:31:02.194Z,65.90
2023-06-08T09:33:34.654Z,65.10
2023-06-08T09:36:09.565Z,65.10
2023-06-08T09:38:39.386Z,65.20
2023-06-08T09:41:17.934Z,65.20
2023-06-08T09:43:48.726Z,65.20
2023-06-08T09:46:35.376Z,65.10
2023-06-08T09:49:08.964Z,65.30
2023-06-08T09:51:41.671Z,65.30
2023-06-08T09:54:15.013Z,65.30
2023-06-08T09:56:49.380Z,65.30
2023-06-08T09:59:19.440Z,65.20
2023-06-08T10:01:55.917Z,65.20
2023-06-08T10:04:27.531Z,65.10
2023-06-08T10:06:59.478Z,65.10
2023-06-08T10:09:32.677Z,65.10
2023-06-08T10:12:04.198Z,65.00
2023-06-08T10:14:35.302Z,65.00
2023-06-08T10:17:05.608Z,65.00
2023-06-08T10:19:35.487Z,65.00
2023-06-08T10:22:06.378Z,65.10
2023-06-08T10:24:37.430Z,65.10
2023-06-08T10:27:30.529Z,65.20
2023-06-08T10:30:01.999Z,65.20
2023-06-08T10:32:33.623Z,65.30
2023-06-08T10:35:06.581Z,65.40
2023-06-08T10:37:38.705Z,65.30
2023-06-08T10:40:10.585Z,66.10
2023-06-08T10:42:56.416Z,65.30
2023-06-08T10:45:34.031Z,65.30
2023-06-08T10:48:08.976Z,65.40
2023-06-08T10:50:41.622Z,65.40
2023-06-08T10:53:10.994Z,65.40
2023-06-08T10:55:40.209Z,65.50
2023-06-08T10:58:19.939Z,65.50
2023-06-08T11:00:52.221Z,65.50
2023-06-08T11:03:22.862Z,65.50
2023-06-08T11:05:55.060Z,65.50
2023-06-08T11:08:24.552Z,65.50
2023-06-08T11:10:55.809Z,65.60
2023-06-08T11:13:26.809Z,65.60
2023-06-08T11:15:56.197Z,65.60
2023-06-08T11:18:25.612Z,65.60
2023-06-08T11:20:59.940Z,65.60
2023-06-08T11:23:34.653Z,65.50
2023-06-08T11:26:04.067Z,65.50
2023-06-08T11:28:34.681Z,65.50
2023-06-08T11:31:08.660Z,65.50
2023-06-08T11:33:38.231Z,65.50
2023-06-08T11:36:07.972Z,65.50
2023-06-08T11:38:37.601Z,65.60
2023-06-08T11:41:06.820Z,65.60
2023-06-08T11:43:37.494Z,65.70
2023-06-08T11:46:07.082Z,65.70
2023-06-08T11:48:36.241Z,65.70
2023-06-08T11:51:05.520Z,65.70
2023-06-08T11:53:35.121Z,65.70
2023-06-08T11:56:06.481Z,65.70
2023-06-08T11:58:41.795Z,65.70
2023-06-08T12:01:14.554Z,65.80
2023-06-08T12:03:47.738Z,65.80
2023-06-08T12:06:18.279Z,65.80
2023-06-08T12:08:47.997Z,65.80
2023-06-08T12:11:17.391Z,65.70
2023-06-08T12:13:49.132Z,65.80
2023-06-08T12:16:18.314Z,65.80
2023-06-08T12:18:47.518Z,65.90
2023-06-08T12:21:19.947Z,65.80
2023-06-08T12:23:49.251Z,65.80
2023-06-08T12:26:18.585Z,65.70
2023-06-08T12:28:49.239Z,65.80
2023-06-08T12:31:18.841Z,65.80
2023-06-08T12:33:48.378Z,65.80
2023-06-08T12:36:17.585Z,65.80
2023-06-08T12:38:46.787Z,65.80
2023-06-08T12:41:16.029Z,65.80
2023-06-08T12:43:48.014Z,65.80
2023-06-08T12:46:20.974Z,65.80
2023-06-08T12:48:51.069Z,65.80
2023-06-08T12:51:20.373Z,65.70
2023-06-08T12:53:49.590Z,65.70
2023-06-08T12:56:19.014Z,65.70
2023-06-08T12:58:48.312Z,65.70
2023-06-08T13:01:21.287Z,65.70
2023-06-08T13:03:50.782Z,65.70
2023-06-08T13:06:20.090Z,65.70
2023-06-08T13:08:49.296Z,65.70
2023-06-08T13:11:18.551Z,65.70
2023-06-08T13:13:47.715Z,65.70
2023-06-08T13:16:18.420Z,65.80
2023-06-08T13:18:47.883Z,65.80
2023-06-08T13:21:17.582Z,65.80
2023-06-08T13:23:49.771Z,65.90
2023-06-08T13:26:20.700Z,65.90
2023-06-08T13:28:49.880Z,65.90
2023-06-08T13:31:20.785Z,65.90
2023-06-08T13:33:50.520Z,65.90
2023-06-08T13:36:19.959Z,65.90
2023-06-08T13:38:49.139Z,66.00
2023-06-08T13:41:19.365Z,65.90
2023-06-08T13:43:48.632Z,65.90
2023-06-08T13:46:19.414Z,65.90
2023-06-08T13:48:48.708Z,65.90
2023-06-08T13:51:17.861Z,65.90
2023-06-08T13:53:47.661Z,65.90
2023-06-08T13:56:17.366Z,65.90
2023-06-08T13:58:46.653Z,65.90
2023-06-08T14:01:16.034Z,65.80
2023-06-08T14:03:46.976Z,65.80
2023-06-08T14:06:16.299Z,65.80
2023-06-08T14:08:45.980Z,65.70
2023-06-08T14:11:15.264Z,65.80
2023-06-08T14:13:45.159Z,65.70
2023-06-08T14:16:14.816Z,65.80
2023-06-08T14:18:44.472Z,65.80
2023-06-08T14:21:15.185Z,65.80
2023-06-08T14:23:44.510Z,65.90
2023-06-08T14:26:13.770Z,65.80
2023-06-08T14:28:43.373Z,65.80
2023-06-08T14:31:13.540Z,65.80
2023-06-08T14:33:42.895Z,65.80
2023-06-08T14:36:12.133Z,65.90
2023-06-08T14:38:42.841Z,65.90
2023-06-08T14:41:12.033Z,65.90
2023-06-08T14:43:41.379Z,65.90
2023-06-08T14:46:12.606Z,66.00
2023-06-08T14:48:42.694Z,66.00
2023-06-08T14:51:23.816Z,65.90
2023-06-08T14:54:02.624Z,66.00
2023-06-08T14:56:31.925Z,66.10
2023-06-08T14:59:01.201Z,66.20
2023-06-08T15:01:30.462Z,66.00
2023-06-08T15:04:00.013Z,66.10
2023-06-08T15:06:29.258Z,66.00
2023-06-08T15:08:58.390Z,66.00
2023-06-08T15:11:29.045Z,66.00
2023-06-08T15:13:58.235Z,66.00
2023-06-08T15:16:27.550Z,66.10
2023-06-08T15:18:56.774Z,66.20
2023-06-08T15:21:25.994Z,66.00
2023-06-08T15:23:55.303Z,65.90
2023-06-08T15:26:24.560Z,66.00
2023-06-08T15:28:55.185Z,66.00
2023-06-08T15:31:24.425Z,66.30
2023-06-08T15:33:53.979Z,66.20
2023-06-08T15:36:23.198Z,66.30
2023-06-08T15:38:52.519Z,66.40
2023-06-08T15:41:21.737Z,66.50
2023-06-08T15:43:51.059Z,66.60
2023-06-08T15:46:21.788Z,66.40
2023-06-08T15:48:55.403Z,66.60
2023-06-08T15:51:32.134Z,66.60
2023-06-08T15:54:03.546Z,66.80
2023-06-08T15:56:32.772Z,66.70
2023-06-08T15:59:02.010Z,66.80
2023-06-08T16:01:33.073Z,66.60
2023-06-08T16:04:02.482Z,66.50
2023-06-08T16:06:31.758Z,66.80
2023-06-08T16:09:01.115Z,66.60
2023-06-08T16:11:30.424Z,66.60
2023-06-08T16:13:59.784Z,66.60
2023-06-08T16:16:29.080Z,66.50
2023-06-08T16:18:59.833Z,66.60
2023-06-08T16:21:31.910Z,66.60
2023-06-08T16:24:01.311Z,66.70
2023-06-08T16:26:30.517Z,66.60
2023-06-08T16:28:59.898Z,66.60
2023-06-08T16:31:33.752Z,66.70
2023-06-08T16:34:04.709Z,66.60
2023-06-08T16:36:34.029Z,66.70
2023-06-08T16:39:03.288Z,66.70
2023-06-08T16:41:32.519Z,66.60
2023-06-08T16:44:01.791Z,66.70
2023-06-08T16:46:31.650Z,66.70
2023-06-08T16:49:01.445Z,66.50
2023-06-08T16:51:32.120Z,66.40
2023-06-08T16:54:03.903Z,66.30
2023-06-08T16:56:33.447Z,66.10
2023-06-08T16:59:02.945Z,66.10
2023-06-08T17:01:32.481Z,66.30
2023-06-08T17:04:01.771Z,66.40
2023-06-08T17:06:32.530Z,66.40
2023-06-08T17:09:01.749Z,66.50
2023-06-08T17:11:33.138Z,66.60
2023-06-08T17:14:02.456Z,66.90
2023-06-08T17:16:31.812Z,66.80
2023-06-08T17:19:01.185Z,66.80
2023-06-08T17:21:31.815Z,66.70
2023-06-08T17:24:01.363Z,66.20
2023-06-08T17:26:30.769Z,65.70
2023-06-08T17:29:00.041Z,65.50
2023-06-08T17:31:29.438Z,65.50
2023-06-08T17:33:59.214Z,66.20
2023-06-08T17:36:28.399Z,66.30
2023-06-08T17:38:59.223Z,65.70
2023-06-08T17:41:29.125Z,65.80
2023-06-08T17:43:58.421Z,66.50
2023-06-08T17:46:27.771Z,67.00
2023-06-08T17:48:56.986Z,67.10
2023-06-08T17:51:26.399Z,67.00
2023-06-08T17:53:55.831Z,66.70
2023-06-08T17:56:26.529Z,66.50
2023-06-08T17:58:55.976Z,66.20
2023-06-08T18:01:25.267Z,66.00
2023-06-08T18:03:54.882Z,65.80
2023-06-08T18:06:25.737Z,65.70
2023-06-08T18:08:57.529Z,65.70
2023-06-08T18:11:29.461Z,65.70
2023-06-08T18:13:59.086Z,65.70
2023-06-08T18:16:28.588Z,65.70
2023-06-08T18:18:58.176Z,65.70
2023-06-08T18:21:27.621Z,65.70
2023-06-08T18:23:57.105Z,65.80
2023-06-08T18:26:29.370Z,65.80
2023-06-08T18:28:59.095Z,65.60
2023-06-08T18:31:30.169Z,65.60
2023-06-08T18:33:59.920Z,65.60
2023-06-08T18:36:29.904Z,65.60
2023-06-08T18:38:59.313Z,65.70
2023-06-08T18:41:30.167Z,66.00
2023-06-08T18:43:59.657Z,66.10
2023-06-08T18:46:28.850Z,66.20
2023-06-08T18:49:00.119Z,66.30
2023-06-08T18:51:29.666Z,66.20
2023-06-08T18:53:59.098Z,66.50
2023-06-08T18:56:34.238Z,66.60
2023-06-08T18:59:04.780Z,66.80
2023-06-08T19:01:34.276Z,66.70
2023-06-08T19:04:03.716Z,67.00
2023-06-08T19:06:33.840Z,67.20
2023-06-08T19:09:03.201Z,67.80
2023-06-08T19:11:33.946Z,67.00
2023-06-08T19:14:03.584Z,66.90
2023-06-08T19:16:33.143Z,67.00
2023-06-08T19:19:07.713Z,66.90
2023-06-08T19:21:38.017Z,66.60
2023-06-08T19:24:09.731Z,66.30
2023-06-08T19:26:41.134Z,66.30
2023-06-08T19:29:11.975Z,66.10
2023-06-08T19:31:42.323Z,66.00
2023-06-08T19:34:12.705Z,65.90
2023-06-08T19:36:41.971Z,65.90
2023-06-08T19:39:11.389Z,65.80
2023-06-08T19:41:42.062Z,65.60
2023-06-08T19:44:11.652Z,65.50
2023-06-08T19:46:42.628Z,65.30
2023-06-08T19:49:12.067Z,65.20
2023-06-08T19:51:43.548Z,65.10
2023-06-08T19:54:15.110Z,64.80
2023-06-08T19:56:50.024Z,64.70
2023-06-08T19:59:20.427Z,64.50
2023-06-08T20:01:52.766Z,64.60
2023-06-08T20:04:22.472Z,64.60
2023-06-08T20:06:54.032Z,65.20
2023-06-08T20:09:24.005Z,64.70
2023-06-08T20:11:57.363Z,64.90
2023-06-08T20:14:27.031Z,65.00
2023-06-08T20:16:57.613Z,65.20
2023-06-08T20:19:27.319Z,65.10
2023-06-08T20:21:56.436Z,64.90
2023-06-08T20:24:25.888Z,64.70
2023-06-08T20:26:56.518Z,64.70
2023-06-08T20:29:26.082Z,64.70
2023-06-08T20:31:55.275Z,64.70
2023-06-08T20:34:24.655Z,64.80
2023-06-08T20:36:53.876Z,64.70
2023-06-08T20:39:23.176Z,64.70
2023-06-08T20:41:54.425Z,64.70
2023-06-08T20:44:25.104Z,64.80
2023-06-08T20:46:56.304Z,64.80
2023-06-08T20:49:25.599Z,64.80
2023-06-08T20:51:54.865Z,64.80
2023-06-08T20:54:24.186Z,64.80
2023-06-08T20:56:53.534Z,64.80
2023-06-08T20:59:24.257Z,64.80
2023-06-08T21:01:53.495Z,64.80
2023-06-08T21:04:30.421Z,64.90
2023-06-08T21:07:00.265Z,64.80
2023-06-08T21:09:29.850Z,64.90
2023-06-08T21:11:59.435Z,64.90
2023-06-08T21:14:30.200Z,64.90
2023-06-08T21:16:59.538Z,64.90
2023-06-08T21:19:28.722Z,65.00
2023-06-08T21:21:57.923Z,65.00
2023-06-08T21:24:29.010Z,65.00
2023-06-08T21:26:58.827Z,65.00
2023-06-08T21:29:29.460Z,65.00
2023-06-08T21:31:58.724Z,65.00
2023-06-08T21:34:27.949Z,65.00
2023-06-08T21:36:57.099Z,65.00
2023-06-08T21:39:26.376Z,65.10
2023-06-08T21:41:55.641Z,65.00
2023-06-08T21:44:25.070Z,65.00
2023-06-08T21:46:55.710Z,65.10
2023-06-08T21:49:24.899Z,65.10
2023-06-08T21:51:54.040Z,65.10
2023-06-08T21:54:23.955Z,65.00
2023-06-08T21:56:53.206Z,65.00
2023-06-08T21:59:22.860Z,65.00
2023-06-08T22:01:52.074Z,64.90
2023-06-08T22:04:25.570Z,65.00
2023-06-08T22:06:55.217Z,65.00
2023-06-08T22:09:24.324Z,65.00
2023-06-08T22:11:56.257Z,65.00
2023-06-08T22:14:26.893Z,65.00
2023-06-08T22:16:56.056Z,65.00
2023-06-08T22:19:29.535Z,65.00
2023-06-08T22:21:58.677Z,65.00
2023-06-08T22:24:27.808Z,65.00
2023-06-08T22:26:57.323Z,65.00
2023-06-08T22:29:27.131Z,65.00
2023-06-08T22:31:56.345Z,65.00
2023-06-08T22:34:27.691Z,65.00
2023-06-08T22:36:57.414Z,65.00
2023-06-08T22:39:26.602Z,65.00
2023-06-08T22:41:55.713Z,65.00
2023-06-08T22:44:25.444Z,64.90
2023-06-08T22:46:55.581Z,65.00
2023-06-08T22:49:29.469Z,65.00
2023-06-08T22:52:03.363Z,65.00
2023-06-08T22:54:32.756Z,65.00
2023-06-08T22:57:02.016Z,64.90
2023-06-08T22:59:31.251Z,65.00
2023-06-08T23:02:00.450Z,65.00
2023-06-08T23:04:34.970Z,64.90
2023-06-08T23:07:04.729Z,64.90
2023-06-08T23:09:34.088Z,64.90
2023-06-08T23:12:03.902Z,64.80
2023-06-08T23:14:33.494Z,64.90
2023-06-08T23:17:03.168Z,64.90
2023-06-08T23:19:34.446Z,64.90
2023-06-08T23:22:03.706Z,64.90
2023-06-08T23:24:32.903Z,64.90
2023-06-08T23:27:02.235Z,64.80
2023-06-08T23:29:31.409Z,64.90
2023-06-08T23:32:00.866Z,64.80
2023-06-08T23:34:30.092Z,64.80
2023-06-08T23:37:01.605Z,64.90
2023-06-08T23:39:30.885Z,64.90
2023-06-08T23:42:00.170Z,64.90
2023-06-08T23:44:29.554Z,64.90
2023-06-08T23:46:59.042Z,64.90
2023-06-08T23:49:28.480Z,64.90
2023-06-08T23:51:57.744Z,64.90
2023-06-08T23:54:28.822Z,64.80
2023-06-08T23:56:58.083Z,64.80
2023-06-08T23:59:27.468Z,64.70
